Time;durP1;ratioP1;P1;durP2;ratioP2;P2;SDS_P1;SDS_P2;PMS_P1;PMS_P2;Temp;Humidity;BMP_temperature;BMP_pressure;BME280_temperature;BME280_humidity;BME280_pressure;Samples;Min_cycle;Max_cycle;Signal;HPM_P1;HPM_P2
2022/06/02 00:03:42;;;;;;;2.20;1.80;;;21.60;40.70;;;;;;8324795;28;20038;-41
2022/06/02 00:08:02;;;;;;;2.22;2.03;;;21.50;40.70;;;;;;8324906;28;20145;-41
2022/06/02 00:12:03;;;;;;;2.28;1.90;;;21.50;40.70;;;;;;8325007;28;20041;-41
2022/06/02 00:16:09;;;;;;;1.87;1.70;;;21.50;40.70;;;;;;8324324;28;20048;-41
2022/06/02 00:20:22;;;;;;;1.88;1.77;;;21.50;40.70;;;;;;8324731;28;20269;-41
2022/06/02 00:24:39;;;;;;;2.15;1.95;;;21.50;40.70;;;;;;8324391;28;20125;-41
2022/06/02 00:29:13;;;;;;;2.75;2.35;;;21.50;40.70;;;;;;8324759;28;20037;-41
2022/06/02 00:33:24;;;;;;;1.92;1.83;;;21.50;40.70;;;;;;8324343;28;20516;-41
2022/06/02 00:37:30;;;;;;;2.22;1.77;;;21.50;40.70;;;;;;8324579;28;20041;-41
2022/06/02 00:41:52;;;;;;;2.10;1.85;;;21.40;40.60;;;;;;8324241;28;20482;-41
2022/06/02 00:46:11;;;;;;;2.35;2.15;;;21.50;40.70;;;;;;8323561;28;20045;-40
2022/06/02 00:50:33;;;;;;;2.10;1.90;;;21.50;40.80;;;;;;8324637;28;20044;-41
2022/06/02 00:59:05;;;;;;;3.03;2.05;;;21.50;40.70;;;;;;8323860;28;20044;-41
2022/06/02 01:03:18;;;;;;;2.22;2.03;;;21.40;40.70;;;;;;8323873;28;20061;-41
2022/06/02 01:07:32;;;;;;;2.38;2.10;;;21.40;40.70;;;;;;8323899;28;20045;-41
2022/06/02 01:11:42;;;;;;;2.63;2.20;;;21.40;40.70;;;;;;8324266;28;20171;-41
2022/06/02 01:16:09;;;;;;;2.85;2.20;;;21.40;40.80;;;;;;8323075;28;20033;-41
2022/06/02 01:20:15;;;;;;;2.30;2.00;;;21.40;40.80;;;;;;8323788;28;20033;-41
2022/06/02 01:24:55;;;;;;;2.25;2.03;;;21.40;40.80;;;;;;8323130;28;20136;-41
2022/06/02 01:29:28;;;;;;;1.85;1.65;;;21.40;40.80;;;;;;8301873;28;20087;-41
2022/06/02 01:33:46;;;;;;;2.00;1.70;;;21.40;40.80;;;;;;8322847;28;20042;-41
2022/06/02 01:38:14;;;;;;;2.25;1.80;;;21.40;40.80;;;;;;8323575;28;20059;-42
2022/06/02 01:42:39;;;;;;;2.90;2.30;;;21.40;40.80;;;;;;8323073;28;20120;-41
2022/06/02 01:47:02;;;;;;;2.08;1.88;;;21.40;40.80;;;;;;8323455;28;20633;-41
2022/06/02 01:51:11;;;;;;;2.05;1.80;;;21.40;40.80;;;;;;8322982;28;20149;-42
2022/06/02 01:55:20;;;;;;;1.95;1.83;;;21.30;40.90;;;;;;8323046;28;20446;-42
2022/06/02 01:59:27;;;;;;;3.08;2.42;;;21.40;40.80;;;;;;8323222;28;20486;-42
2022/06/02 02:04:14;;;;;;;2.38;2.17;;;21.40;40.80;;;;;;8322346;28;20029;-42
2022/06/02 02:08:38;;;;;;;3.38;2.65;;;21.30;40.80;;;;;;8322888;28;20029;-42
2022/06/02 02:12:57;;;;;;;1.80;1.70;;;21.30;40.80;;;;;;8324847;28;20516;-41
2022/06/02 02:17:03;;;;;;;3.05;2.40;;;21.30;40.80;;;;;;8328869;28;20037;-43
2022/06/02 02:21:32;;;;;;;3.22;2.08;;;21.30;40.80;;;;;;8328498;28;20029;-42
2022/06/02 02:25:54;;;;;;;2.72;2.00;;;21.30;40.80;;;;;;8327933;28;20085;-41
2022/06/02 02:30:15;;;;;;;4.32;2.20;;;21.30;40.80;;;;;;8328240;28;20109;-42
2022/06/02 02:34:43;;;;;;;2.63;1.88;;;21.30;40.80;;;;;;8327708;28;20033;-42
2022/06/02 02:39:12;;;;;;;2.00;1.80;;;21.20;40.80;;;;;;8328175;28;20486;-42
2022/06/02 02:43:31;;;;;;;2.17;1.98;;;21.30;40.90;;;;;;8327515;28;20334;-42
2022/06/02 02:47:35;;;;;;;2.10;1.90;;;21.20;40.80;;;;;;8328078;28;20045;-41
2022/06/02 02:51:54;;;;;;;2.38;1.80;;;21.20;40.80;;;;;;8327152;28;20114;-42
2022/06/02 02:55:58;;;;;;;2.35;2.15;;;21.20;40.90;;;;;;8327658;28;20283;-42
2022/06/02 03:00:14;;;;;;;2.42;1.92;;;21.20;40.80;;;;;;8327480;28;20034;-42
2022/06/02 03:04:45;;;;;;;2.20;2.00;;;21.20;40.80;;;;;;8326973;28;20045;-41
2022/06/02 03:09:24;;;;;;;3.40;2.42;;;21.20;40.80;;;;;;8327427;28;20557;-42
2022/06/02 03:13:56;;;;;;;3.20;1.88;;;21.20;40.80;;;;;;8326825;28;20039;-42
2022/06/02 03:18:05;;;;;;;2.55;1.90;;;21.20;40.90;;;;;;8309264;28;20042;-42
2022/06/02 03:22:24;;;;;;;2.97;2.28;;;21.20;40.90;;;;;;8326366;28;20137;-42
2022/06/02 03:26:45;;;;;;;2.30;1.60;;;21.20;40.90;;;;;;8326588;28;20445;-42
2022/06/02 03:31:28;;;;;;;2.88;2.05;;;21.20;40.90;;;;;;8326290;28;20030;-42
2022/06/02 03:35:33;;;;;;;2.38;1.80;;;21.10;40.80;;;;;;8327068;28;20042;-42
2022/06/02 03:39:49;;;;;;;2.20;1.95;;;21.10;40.80;;;;;;8325941;28;20048;-42
2022/06/02 03:44:04;;;;;;;2.20;1.90;;;21.10;40.80;;;;;;8322374;28;20042;-42
2022/06/02 03:48:16;;;;;;;2.17;1.88;;;21.10;40.80;;;;;;8293505;28;20121;-41
2022/06/02 03:52:37;;;;;;;;;;;21.10;40.80;;;;;;8293921;28;20423;-42
2022/06/02 03:57:15;;;;;;;2.22;1.73;;;21.10;40.80;;;;;;8293087;28;20360;-41
2022/06/02 04:01:26;;;;;;;2.33;1.88;;;21.10;40.80;;;;;;8292751;28;20033;-41
2022/06/02 04:05:51;;;;;;;4.03;1.80;;;21.10;40.90;;;;;;8292595;28;20529;-41
2022/06/02 04:10:27;;;;;;;2.10;1.70;;;21.10;40.80;;;;;;8292497;28;20046;-41
2022/06/02 04:14:44;;;;;;;1.63;1.50;;;21.10;40.80;;;;;;8291161;28;20068;-41
2022/06/02 04:24:13;;;;;;;1.90;1.67;;;21.20;40.80;;;;;;8292240;28;20033;-41
2022/06/02 04:28:27;;;;;;;1.50;1.40;;;21.20;40.80;;;;;;8292073;28;20101;-40
2022/06/02 04:32:40;;;;;;;1.98;1.77;;;21.30;40.70;;;;;;8323264;28;20037;-41
2022/06/02 04:36:52;;;;;;;1.95;1.55;;;21.30;40.60;;;;;;8323511;28;20045;-41
2022/06/02 04:41:22;;;;;;;2.33;1.80;;;21.40;40.60;;;;;;8324242;28;20038;-41
2022/06/02 04:45:52;;;;;;;1.80;1.70;;;21.40;40.60;;;;;;8323723;28;20065;-41
2022/06/02 04:50:02;;;;;;;1.60;1.50;;;21.50;40.50;;;;;;8324171;28;20470;-41
2022/06/02 04:54:23;;;;;;;1.80;1.70;;;21.50;40.50;;;;;;8323963;28;20033;-42
2022/06/02 04:58:31;;;;;;;2.20;2.00;;;21.50;40.40;;;;;;8324317;28;20032;-41
2022/06/02 05:02:59;;;;;;;1.70;1.60;;;21.60;40.40;;;;;;8324103;28;20029;-42
2022/06/02 05:07:25;;;;;;;1.60;1.50;;;21.60;40.40;;;;;;8323308;28;20584;-41
2022/06/02 05:12:07;;;;;;;2.05;1.70;;;21.60;40.30;;;;;;8304731;28;20025;-41
2022/06/02 05:16:15;;;;;;;;;;;21.60;40.50;;;;;;8323665;28;20516;-41
2022/06/02 05:20:34;;;;;;;2.75;1.80;;;21.60;40.40;;;;;;8323871;28;19909;-41
2022/06/02 05:25:04;;;;;;;2.25;1.95;;;21.70;40.40;;;;;;8322722;28;20525;-41
2022/06/02 05:29:26;;;;;;;1.40;1.30;;;21.70;40.20;;;;;;8323337;28;20422;-41
2022/06/02 05:33:33;;;;;;;1.67;1.58;;;21.80;40.20;;;;;;8323378;28;20513;-41
2022/06/02 05:37:52;;;;;;;2.00;1.83;;;21.80;40.20;;;;;;8323644;28;20486;-41
2022/06/02 05:42:13;;;;;;;2.88;1.92;;;21.80;40.20;;;;;;8323314;28;20037;-41
2022/06/02 05:46:21;;;;;;;;;;;21.70;40.20;;;;;;8323543;28;20046;-41
2022/06/02 05:50:47;;;;;;;1.85;1.55;;;21.70;40.30;;;;;;8329803;28;20384;-42
2022/06/02 05:55:08;;;;;;;1.85;1.70;;;21.70;40.30;;;;;;8329001;28;20097;-41
2022/06/02 05:59:47;;;;;;;1.50;1.40;;;21.70;40.30;;;;;;8329638;28;20159;-41
2022/06/02 06:04:25;;;;;;;1.73;1.42;;;21.60;40.30;;;;;;8305768;28;20052;-41
2022/06/02 06:08:39;;;;;;;1.92;1.70;;;21.70;40.40;;;;;;8329227;28;20053;-41
2022/06/02 06:13:04;;;;;;;1.90;1.77;;;21.60;40.30;;;;;;8328235;28;20042;-41
2022/06/02 06:17:17;;;;;;;1.45;1.35;;;21.60;40.30;;;;;;8329058;28;20421;-42
2022/06/02 06:21:26;;;;;;;2.20;1.60;;;21.60;40.40;;;;;;8328007;28;20038;-40
2022/06/02 06:25:52;;;;;;;1.60;1.50;;;21.60;40.40;;;;;;8328842;28;20120;-41
2022/06/02 06:30:01;;;;;;;1.88;1.60;;;21.60;40.40;;;;;;8328590;28;20537;-41
2022/06/02 06:34:33;;;;;;;2.15;1.70;;;21.60;40.40;;;;;;8327876;28;20033;-41
2022/06/02 06:38:53;;;;;;;1.70;1.50;;;21.60;40.40;;;;;;8328486;28;20040;-41
2022/06/02 06:43:15;;;;;;;2.45;1.70;;;21.70;40.40;;;;;;8327480;28;20034;-41
2022/06/02 06:47:34;;;;;;;1.90;1.70;;;21.60;40.30;;;;;;8327628;28;20123;-41
2022/06/02 06:51:37;;;;;;;1.70;1.60;;;21.60;40.30;;;;;;8327138;28;20074;-41
2022/06/02 06:55:44;;;;;;;2.53;1.92;;;21.60;40.30;;;;;;8327333;28;20034;-41
2022/06/02 07:00:07;;;;;;;2.15;1.50;;;21.60;40.30;;;;;;8327134;28;20025;-42
2022/06/02 07:04:22;;;;;;;1.75;1.65;;;21.60;40.30;;;;;;8326855;28;20041;-41
2022/06/02 07:08:36;;;;;;;1.67;1.55;;;21.60;40.80;;;;;;8327107;28;20429;-41
2022/06/02 07:12:58;;;;;;;1.88;1.70;;;21.60;40.30;;;;;;8326900;28;20065;-40
2022/06/02 07:17:04;;;;;;;1.80;1.63;;;21.60;40.30;;;;;;8326801;28;20072;-40
2022/06/02 07:21:34;;;;;;;2.92;1.60;;;21.70;40.30;;;;;;8326552;28;20041;-41
2022/06/02 07:25:46;;;;;;;1.92;1.83;;;21.70;40.30;;;;;;8326082;28;20072;-41
2022/06/02 07:30:34;;;;;;;1.73;1.40;;;21.60;40.30;;;;;;8326824;28;20037;-41
2022/06/02 07:35:04;;;;;;;2.55;1.77;;;21.60;40.30;;;;;;8274766;28;20040;-41
2022/06/02 07:39:12;;;;;;;2.75;1.70;;;21.60;40.30;;;;;;8326335;28;20057;-40
2022/06/02 07:43:41;;;;;;;2.60;1.75;;;21.60;40.20;;;;;;8325405;28;20041;-41
2022/06/02 07:48:18;;;;;;;1.90;1.67;;;21.60;40.20;;;;;;8325746;28;20595;-40
2022/06/02 07:52:46;;;;;;;2.00;1.80;;;21.60;40.20;;;;;;8323942;28;20433;-41
2022/06/02 07:57:04;;;;;;;2.00;1.80;;;21.70;40.20;;;;;;8325447;28;20048;-41
2022/06/02 08:01:17;;;;;;;1.63;1.52;;;21.70;40.20;;;;;;8324934;28;20061;-41
2022/06/02 08:05:19;;;;;;;2.33;2.13;;;21.70;40.20;;;;;;8325440;28;20049;-41
2022/06/02 08:10:02;;;;;;;1.70;1.58;;;21.70;40.20;;;;;;8324582;28;20034;-41
2022/06/02 08:14:34;;;;;;;1.80;1.60;;;21.70;40.10;;;;;;8316237;28;20197;-40
2022/06/02 08:18:35;;;;;;;1.45;1.35;;;21.70;40.10;;;;;;8324140;28;20060;-40
2022/06/02 08:22:50;;;;;;;1.70;1.60;;;21.70;40.10;;;;;;8324629;28;20532;-40
2022/06/02 08:27:08;;;;;;;2.00;1.50;;;21.70;40.10;;;;;;8324746;28;20514;-40
2022/06/02 08:31:30;;;;;;;1.55;1.45;;;21.70;40.10;;;;;;8324609;28;20049;-40
2022/06/02 08:35:49;;;;;;;1.65;1.50;;;21.70;40.10;;;;;;8324663;28;20413;-40
2022/06/02 08:40:08;;;;;;;2.33;1.60;;;21.70;40.00;;;;;;8324118;28;20125;-40
2022/06/02 08:44:46;;;;;;;1.67;1.50;;;21.70;40.00;;;;;;8324267;28;20042;-41
2022/06/02 08:49:02;;;;;;;2.40;1.55;;;21.70;40.00;;;;;;8323702;28;20044;-41
2022/06/02 08:53:29;;;;;;;1.92;1.40;;;21.70;40.00;;;;;;8323883;28;20542;-40
2022/06/02 08:57:47;;;;;;;1.38;1.20;;;21.80;40.10;;;;;;8323641;28;20498;-40
2022/06/02 09:01:59;;;;;;;2.45;1.48;;;21.80;40.10;;;;;;8323852;28;20038;-40
2022/06/02 09:06:24;;;;;;;1.83;1.70;;;21.80;40.10;;;;;;8324279;28;20041;-40
2022/06/02 09:10:34;;;;;;;1.20;1.10;;;21.80;40.00;;;;;;8323928;28;20033;-40
2022/06/02 09:15:15;;;;;;;3.22;1.60;;;21.80;40.00;;;;;;8323946;28;20490;-41
2022/06/02 09:19:31;;;;;;;2.15;1.70;;;21.80;40.00;;;;;;8323490;28;20491;-41
2022/06/02 09:23:46;;;;;;;1.55;1.45;;;21.90;40.10;;;;;;8329375;28;20394;-41
2022/06/02 09:27:59;;;;;;;1.55;1.45;;;21.90;40.00;;;;;;8330143;28;20052;-41
2022/06/02 09:32:10;;;;;;;1.58;1.48;;;21.90;40.10;;;;;;8330034;28;20127;-41
2022/06/02 09:36:55;;;;;;;1.73;1.58;;;21.90;40.00;;;;;;8329663;28;20030;-42
2022/06/02 09:41:01;;;;;;;1.77;1.67;;;22.00;40.00;;;;;;8329920;28;20037;-41
2022/06/02 09:45:09;;;;;;;1.52;1.42;;;22.00;40.10;;;;;;8329728;28;20052;-41
2022/06/02 09:49:28;;;;;;;1.70;1.60;;;22.00;40.00;;;;;;8329225;28;20029;-41
2022/06/02 09:53:28;;;;;;;1.60;1.50;;;22.00;40.00;;;;;;8329496;28;20040;-41
2022/06/02 09:58:02;;;;;;;1.60;1.50;;;22.00;40.00;;;;;;8329266;28;20208;-41
2022/06/02 10:02:19;;;;;;;1.98;1.80;;;22.00;40.00;;;;;;8321037;28;20037;-41
2022/06/02 10:06:42;;;;;;;1.83;1.73;;;22.10;40.00;;;;;;8329125;28;20065;-41
2022/06/02 10:10:57;;;;;;;2.65;1.65;;;22.10;40.00;;;;;;8329583;28;20114;-41
2022/06/02 10:15:19;;;;;;;2.15;1.80;;;22.10;40.00;;;;;;8329191;28;20395;-41
2022/06/02 10:19:58;;;;;;;1.63;1.52;;;22.10;39.90;;;;;;8340760;28;20217;-41
2022/06/02 10:24:27;;;;;;;1.80;1.55;;;22.10;39.90;;;;;;8312820;28;20030;-41
2022/06/02 10:28:47;;;;;;;1.50;1.40;;;22.10;39.80;;;;;;8295878;28;20104;-41
2022/06/02 10:33:06;;;;;;;1.90;1.45;;;22.20;39.90;;;;;;8294738;28;20038;-41
2022/06/02 10:37:48;;;;;;;1.98;1.60;;;22.20;39.90;;;;;;8295012;28;20045;-41
2022/06/02 10:42:21;;;;;;;1.67;1.58;;;22.20;39.80;;;;;;8295514;28;20037;-41
2022/06/02 10:46:46;;;;;;;1.38;1.25;;;22.20;39.80;;;;;;8295042;28;20104;-42
2022/06/02 10:51:27;;;;;;;3.00;1.50;;;22.20;39.70;;;;;;8295285;28;20030;-42
2022/06/02 10:55:52;;;;;;;2.17;1.67;;;22.30;39.80;;;;;;8296193;28;20429;-39
2022/06/02 11:00:19;;;;;;;1.88;1.60;;;22.30;39.70;;;;;;8294733;28;20399;-41
2022/06/02 11:05:04;;;;;;;1.83;1.60;;;22.30;39.70;;;;;;8294622;28;20037;-41
2022/06/02 11:09:42;;;;;;;2.47;1.45;;;22.30;39.70;;;;;;8294270;28;20099;-41
2022/06/02 11:14:19;;;;;;;1.60;1.50;;;22.30;39.70;;;;;;8294164;28;20111;-40
2022/06/02 11:18:34;;;;;;;1.60;1.50;;;22.40;39.60;;;;;;8293937;28;20030;-40
2022/06/02 11:23:16;;;;;;;2.03;1.45;;;22.40;39.60;;;;;;8294408;28;20118;-40
2022/06/02 11:27:33;;;;;;;1.40;1.30;;;22.50;39.60;;;;;;8293366;28;20450;-40
2022/06/02 11:32:10;;;;;;;1.67;1.58;;;22.40;39.60;;;;;;8293899;28;20034;-40
2022/06/02 11:36:42;;;;;;;2.30;2.10;;;22.50;39.60;;;;;;8293670;28;20096;-40
2022/06/02 11:41:17;;;;;;;1.60;1.50;;;22.50;39.60;;;;;;8294161;28;20112;-41
2022/06/02 11:45:33;;;;;;;1.63;1.52;;;22.50;39.60;;;;;;8322564;28;20521;-41
2022/06/02 11:49:54;;;;;;;1.70;1.60;;;22.50;39.60;;;;;;8326123;28;20095;-41
2022/06/02 11:53:54;;;;;;;;;;;22.50;39.60;;;;;;8326281;28;20048;-40
2022/06/02 11:58:17;;;;;;;2.23;1.57;;;22.50;39.60;;;;;;8325313;28;20285;-41
2022/06/02 12:02:49;;;;;;;1.73;1.58;;;22.50;39.60;;;;;;8325382;28;20039;-41
2022/06/02 12:07:08;;;;;;;2.05;1.48;;;22.50;39.60;;;;;;8325443;28;20553;-40
2022/06/02 12:11:40;;;;;;;1.65;1.55;;;22.50;39.60;;;;;;8325203;28;20037;-41
2022/06/02 12:16:13;;;;;;;3.05;1.85;;;22.50;39.60;;;;;;8324907;28;20132;-40
2022/06/02 12:21:15;;;;;;;1.88;1.70;;;22.50;39.70;;;;;;8324703;28;20041;-41
2022/06/02 12:25:22;;;;;;;1.60;1.48;;;22.50;39.70;;;;;;8272926;28;20049;-41
2022/06/02 12:29:31;;;;;;;2.13;1.73;;;22.50;39.70;;;;;;8292085;28;20038;-41
2022/06/02 12:33:51;;;;;;;1.85;1.75;;;22.50;39.70;;;;;;8291558;28;20029;-41
2022/06/02 12:38:25;;;;;;;1.65;1.40;;;22.40;39.70;;;;;;8291908;28;20038;-41
2022/06/02 12:42:51;;;;;;;2.13;1.70;;;22.40;39.70;;;;;;8291377;28;20037;-41
2022/06/02 12:47:30;;;;;;;1.88;1.70;;;22.40;39.70;;;;;;8291623;28;20053;-41
2022/06/02 12:51:58;;;;;;;1.85;1.50;;;22.40;39.70;;;;;;8291187;28;20180;-41
2022/06/02 12:56:13;;;;;;;1.70;1.60;;;22.40;39.70;;;;;;8323228;28;20033;-41
2022/06/02 13:00:36;;;;;;;1.70;1.50;;;22.40;39.80;;;;;;8323991;28;20045;-41
2022/06/02 13:05:17;;;;;;;2.45;2.00;;;22.50;39.90;;;;;;8323830;28;20048;-41
2022/06/02 13:09:53;;;;;;;2.22;1.90;;;22.40;39.90;;;;;;8323377;28;20041;-41
2022/06/02 13:14:31;;;;;;;2.38;1.85;;;22.40;39.90;;;;;;8323722;28;20061;-41
2022/06/02 13:18:46;;;;;;;1.80;1.70;;;22.40;39.90;;;;;;8323126;28;20140;-41
2022/06/02 13:23:01;;;;;;;1.73;1.63;;;22.40;39.90;;;;;;8323350;28;20080;-41
2022/06/02 13:27:23;;;;;;;1.95;1.75;;;22.40;39.90;;;;;;8323482;28;20418;-41
2022/06/02 13:31:42;;;;;;;2.17;1.98;;;22.40;39.90;;;;;;8322995;28;20037;-41
2022/06/02 13:36:05;;;;;;;1.75;1.63;;;22.50;40.00;;;;;;8323071;28;20478;-41
2022/06/02 13:40:28;;;;;;;1.63;1.50;;;22.40;40.00;;;;;;8322687;28;20041;-41
2022/06/02 13:45:09;;;;;;;1.85;1.60;;;22.40;39.90;;;;;;8323000;28;20037;-40
2022/06/02 13:49:47;;;;;;;2.03;1.67;;;22.40;39.90;;;;;;8299784;28;20517;-40
2022/06/02 13:58:37;;;;;;;1.60;1.50;;;22.50;40.00;;;;;;8322635;28;20036;-40
2022/06/02 14:02:56;;;;;;;1.75;1.65;;;22.50;40.00;;;;;;8323233;28;20292;-40
2022/06/02 14:07:30;;;;;;;1.85;1.75;;;22.50;40.00;;;;;;8323057;28;20069;-40
2022/06/02 14:11:48;;;;;;;1.70;1.60;;;22.50;40.00;;;;;;8328818;28;20147;-41
2022/06/02 14:16:10;;;;;;;1.92;1.58;;;22.50;40.00;;;;;;8327901;28;20061;-41
2022/06/02 14:20:32;;;;;;;2.25;1.73;;;22.50;39.90;;;;;;8328899;28;20293;-40
2022/06/02 14:24:52;;;;;;;2.03;1.70;;;22.50;39.90;;;;;;8327853;28;20554;-40
2022/06/02 14:29:06;;;;;;;1.88;1.67;;;22.50;39.90;;;;;;8328204;28;20308;-40
2022/06/02 14:33:28;;;;;;;1.70;1.60;;;22.50;40.00;;;;;;8328086;28;20052;-40
2022/06/02 14:37:39;;;;;;;3.33;1.83;;;22.50;39.90;;;;;;8328203;28;20503;-40
2022/06/02 14:41:59;;;;;;;1.53;1.43;;;22.50;39.90;;;;;;8327859;28;20083;-41
2022/06/02 14:46:07;;;;;;;1.90;1.70;;;22.50;39.80;;;;;;8327075;28;20136;-40
2022/06/02 14:50:21;;;;;;;1.73;1.50;;;22.50;39.70;;;;;;8327750;28;20042;-40
2022/06/02 14:54:31;;;;;;;1.67;1.58;;;22.60;39.80;;;;;;8326931;28;20034;-40
2022/06/02 14:58:44;;;;;;;1.80;1.52;;;22.60;39.70;;;;;;8327359;28;20040;-40
2022/06/02 15:03:22;;;;;;;2.22;1.70;;;22.60;39.70;;;;;;8327118;28;20430;-40
2022/06/02 15:07:51;;;;;;;2.25;1.85;;;22.60;39.80;;;;;;8327179;28;20045;-40
2022/06/02 15:12:10;;;;;;;2.33;1.67;;;22.70;39.80;;;;;;8327194;28;20407;-40
2022/06/02 15:16:38;;;;;;;1.70;1.58;;;22.70;39.80;;;;;;8326685;28;20061;-40
2022/06/02 15:20:57;;;;;;;1.52;1.42;;;22.70;39.70;;;;;;8326475;28;20036;-40
2022/06/02 15:25:00;;;;;;;2.35;1.77;;;22.70;39.70;;;;;;8326234;28;20103;-41
2022/06/02 15:29:11;;;;;;;2.00;1.80;;;22.80;39.70;;;;;;8326593;28;20037;-40
2022/06/02 15:33:31;;;;;;;3.15;1.80;;;22.80;39.70;;;;;;8325837;28;20033;-41
2022/06/02 15:38:06;;;;;;;1.85;1.65;;;22.80;39.60;;;;;;8326730;28;20034;-41
2022/06/02 15:42:15;;;;;;;1.80;1.70;;;22.90;39.70;;;;;;8325834;28;20044;-40
2022/06/02 15:46:54;;;;;;;1.83;1.73;;;22.90;39.70;;;;;;8326312;28;20087;-40
2022/06/02 15:51:08;;;;;;;2.33;1.90;;;22.90;39.60;;;;;;8326072;28;20041;-41
2022/06/02 15:55:36;;;;;;;2.08;1.75;;;22.90;39.70;;;;;;8326230;28;20136;-41
2022/06/02 16:00:01;;;;;;;1.70;1.60;;;22.90;39.70;;;;;;8325937;28;20037;-41
2022/06/02 16:04:39;;;;;;;2.05;1.85;;;22.90;39.70;;;;;;8325213;28;20034;-41
2022/06/02 16:13:57;;;;;;;2.35;1.90;;;22.90;39.60;;;;;;8324933;28;20095;-41
2022/06/02 16:18:07;;;;;;;1.95;1.85;;;22.90;39.60;;;;;;8325549;28;20033;-41
2022/06/02 16:22:16;;;;;;;2.05;1.83;;;22.90;39.60;;;;;;8324501;28;20185;-41
2022/06/02 16:27:11;;;;;;;2.47;2.28;;;22.90;39.70;;;;;;8324789;28;20049;-41
2022/06/02 16:31:37;;;;;;;2.15;1.75;;;22.90;39.70;;;;;;8264211;28;20041;-41
2022/06/02 16:36:17;;;;;;;2.42;1.98;;;22.90;39.60;;;;;;8292317;28;20105;-41
2022/06/02 16:41:09;;;;;;;2.50;1.92;;;22.90;39.60;;;;;;8291625;28;20117;-41
2022/06/02 16:45:28;;;;;;;2.05;1.83;;;22.90;39.50;;;;;;8278497;28;20410;-41
2022/06/02 16:49:28;;;;;;;2.08;1.88;;;22.90;39.60;;;;;;8291390;28;20061;-41
2022/06/02 16:53:53;;;;;;;2.60;1.98;;;22.90;39.60;;;;;;8291332;28;20655;-41
2022/06/02 16:58:11;;;;;;;2.03;1.63;;;22.90;39.60;;;;;;8291091;28;20407;-41
2022/06/02 17:02:48;;;;;;;2.55;1.92;;;22.90;39.60;;;;;;8319930;28;20041;-40
2022/06/02 17:07:16;;;;;;;2.28;1.90;;;22.90;39.50;;;;;;8246852;28;20731;-40
2022/06/02 17:11:30;;;;;;;2.03;1.83;;;22.90;39.60;;;;;;8291266;28;20049;-41
2022/06/02 17:15:52;;;;;;;3.20;2.25;;;22.90;39.60;;;;;;8290624;28;20046;-40
2022/06/02 17:20:32;;;;;;;2.33;2.00;;;22.90;39.60;;;;;;8290592;28;20049;-40
2022/06/02 17:25:00;;;;;;;2.55;1.98;;;22.90;39.60;;;;;;8290206;28;20037;-40
2022/06/02 17:29:34;;;;;;;2.30;2.03;;;22.90;39.60;;;;;;8290937;28;20026;-40
2022/06/02 17:33:50;;;;;;;2.45;2.15;;;22.90;39.60;;;;;;8290223;28;20313;-40
2022/06/02 17:38:09;;;;;;;3.42;2.60;;;22.90;39.60;;;;;;8290745;28;20034;-40
2022/06/02 17:42:48;;;;;;;2.67;2.30;;;22.90;39.60;;;;;;8291715;28;20038;-40
2022/06/02 17:47:29;;;;;;;2.50;2.20;;;22.90;39.70;;;;;;8296889;28;20453;-40
2022/06/02 17:51:47;;;;;;;2.35;2.03;;;22.90;39.60;;;;;;8296366;28;20434;-40
2022/06/02 17:56:03;;;;;;;2.80;2.30;;;22.90;39.60;;;;;;8296765;28;20450;-40
2022/06/02 18:00:24;;;;;;;2.40;2.08;;;22.90;39.60;;;;;;8296602;28;20064;-44
2022/06/02 18:04:42;;;;;;;2.53;2.33;;;22.90;39.60;;;;;;8296070;28;20034;-40
2022/06/02 18:09:13;;;;;;;2.13;1.90;;;22.90;39.70;;;;;;8296305;28;20050;-39
2022/06/02 18:14:04;;;;;;;3.05;2.15;;;22.90;39.60;;;;;;8276456;28;20438;-40
2022/06/02 18:18:17;;;;;;;2.73;2.50;;;22.80;39.60;;;;;;8328276;28;20490;-40
2022/06/02 18:22:26;;;;;;;2.95;2.20;;;22.80;39.70;;;;;;8328488;28;20498;-40
2022/06/02 18:26:38;;;;;;;2.72;2.30;;;22.80;39.70;;;;;;8328370;28;20038;-42
2022/06/02 18:31:06;;;;;;;2.38;2.17;;;22.80;39.70;;;;;;8328135;28;20498;-41
2022/06/02 18:35:19;;;;;;;3.63;2.85;;;22.80;39.80;;;;;;8328839;28;20025;-42
2022/06/02 18:39:50;;;;;;;2.30;2.10;;;22.80;39.80;;;;;;8327759;28;20445;-40
2022/06/02 18:44:31;;;;;;;3.03;2.40;;;22.80;39.80;;;;;;8328377;28;20046;-40
2022/06/02 18:48:59;;;;;;;2.10;1.90;;;22.80;39.80;;;;;;8327979;28;20510;-40
2022/06/02 18:53:18;;;;;;;3.20;2.60;;;22.80;39.90;;;;;;8327910;28;20441;-40
2022/06/02 18:57:48;;;;;;;3.40;2.67;;;22.80;39.90;;;;;;8327513;28;20320;-40
2022/06/02 19:02:23;;;;;;;2.77;2.43;;;22.80;39.90;;;;;;8328022;28;20030;-40
2022/06/02 19:16:03;;;;;;;3.88;3.03;;;22.80;40.00;;;;;;8326701;28;20056;-41
2022/06/02 19:20:03;;;;;;;3.40;2.53;;;22.80;40.00;;;;;;8327218;28;20033;-41
2022/06/02 19:24:32;;;;;;;3.30;2.60;;;22.80;40.00;;;;;;8327247;28;20032;-42
2022/06/02 19:29:05;;;;;;;3.10;2.80;;;22.70;40.00;;;;;;8274845;28;20069;-40
2022/06/02 19:33:08;;;;;;;3.03;2.33;;;22.70;40.00;;;;;;8272824;28;20487;-40
2022/06/02 19:37:22;;;;;;;2.72;2.42;;;22.70;40.00;;;;;;8293437;28;20505;-40
2022/06/02 19:41:41;;;;;;;2.30;2.10;;;22.70;40.00;;;;;;8293524;28;20046;-40
2022/06/02 19:45:50;;;;;;;2.30;2.03;;;22.70;40.10;;;;;;8293583;28;20069;-40
2022/06/02 19:50:15;;;;;;;3.08;2.45;;;22.70;40.10;;;;;;8293373;28;20076;-40
2022/06/02 19:54:23;;;;;;;2.38;2.10;;;22.70;40.10;;;;;;8292958;28;20073;-40
2022/06/02 19:58:29;;;;;;;3.30;2.55;;;22.70;40.10;;;;;;8293484;28;20060;-40
2022/06/02 20:02:34;;;;;;;2.65;2.30;;;22.70;40.10;;;;;;8293195;28;20398;-40
2022/06/02 20:06:37;;;;;;;3.25;2.75;;;22.70;40.00;;;;;;8291963;28;20334;-40
2022/06/02 20:10:48;;;;;;;2.47;2.28;;;22.70;40.10;;;;;;8293259;28;20034;-40
2022/06/02 20:15:00;;;;;;;3.90;2.72;;;22.70;40.00;;;;;;8293293;28;20034;-42
2022/06/02 20:19:39;;;;;;;3.33;2.65;;;22.70;40.00;;;;;;8292382;28;20041;-40
2022/06/02 20:24:18;;;;;;;3.65;2.70;;;22.70;40.10;;;;;;8322335;28;20037;-41
2022/06/02 20:28:21;;;;;;;3.20;2.90;;;22.70;40.20;;;;;;8277112;28;20057;-42
2022/06/02 20:32:36;;;;;;;3.20;2.85;;;22.70;40.20;;;;;;8292468;28;20030;-41
2022/06/02 20:36:48;;;;;;;3.17;2.40;;;22.60;40.20;;;;;;8291403;28;20495;-41
2022/06/02 20:41:10;;;;;;;3.00;2.70;;;22.60;40.30;;;;;;8291930;28;20140;-40
2022/06/02 20:45:30;;;;;;;3.58;2.75;;;22.60;40.50;;;;;;8291643;28;20042;-41
2022/06/02 20:49:37;;;;;;;2.70;2.28;;;22.60;40.30;;;;;;8292268;28;20386;-41
2022/06/02 20:53:40;;;;;;;3.25;2.85;;;22.60;40.30;;;;;;8319287;28;20505;-40
2022/06/02 20:57:50;;;;;;;5.72;2.83;;;22.60;40.40;;;;;;8324082;28;20061;-41
2022/06/02 21:01:54;;;;;;;3.00;2.67;;;22.60;40.40;;;;;;8324542;28;20025;-40
2022/06/02 21:06:21;;;;;;;2.72;2.42;;;22.60;40.40;;;;;;8324324;28;20041;-41
2022/06/02 21:10:22;;;;;;;3.35;2.70;;;22.60;40.40;;;;;;8323728;28;20032;-41
2022/06/02 21:14:27;;;;;;;3.50;2.80;;;22.60;40.40;;;;;;8324274;28;20395;-40
2022/06/02 21:18:40;;;;;;;3.45;2.80;;;22.60;40.40;;;;;;8322598;28;20045;-40
2022/06/02 21:22:45;;;;;;;3.53;2.47;;;22.60;40.40;;;;;;8324295;28;20034;-41
2022/06/02 21:27:20;;;;;;;3.10;2.65;;;22.60;40.40;;;;;;8323728;28;20037;-41
2022/06/02 21:31:32;;;;;;;3.08;2.55;;;22.50;40.30;;;;;;8323055;28;20033;-41
2022/06/02 21:35:46;;;;;;;3.70;2.55;;;22.50;40.40;;;;;;8323667;28;20080;-41
2022/06/02 21:39:50;;;;;;;3.00;2.25;;;22.50;40.50;;;;;;8323623;28;20038;-41
2022/06/02 21:44:15;;;;;;;3.78;2.80;;;22.50;40.50;;;;;;8323740;28;20037;-40
2022/06/02 21:48:19;;;;;;;3.22;2.50;;;22.50;40.40;;;;;;8322870;28;20526;-41
2022/06/02 21:52:28;;;;;;;2.60;2.40;;;22.50;40.50;;;;;;8322992;28;20226;-41
2022/06/02 21:56:41;;;;;;;4.00;2.63;;;22.50;40.50;;;;;;8323147;28;20068;-40
2022/06/02 22:00:50;;;;;;;4.18;2.92;;;22.50;40.50;;;;;;8322752;28;20034;-40
2022/06/02 22:05:14;;;;;;;2.85;2.55;;;22.50;40.60;;;;;;8323370;28;20034;-41
2022/06/02 22:09:21;;;;;;;3.13;2.75;;;22.50;40.60;;;;;;8322282;28;20076;-40
2022/06/02 22:13:37;;;;;;;3.65;2.58;;;22.50;40.60;;;;;;8322894;28;20030;-40
2022/06/02 22:17:48;;;;;;;3.03;2.72;;;22.50;40.60;;;;;;8323285;28;20041;-41
2022/06/02 22:22:10;;;;;;;3.03;2.50;;;22.50;40.60;;;;;;8322284;28;20122;-41
2022/06/02 22:26:34;;;;;;;2.90;2.58;;;22.50;40.60;;;;;;8322557;28;20576;-41
2022/06/02 22:30:56;;;;;;;2.92;2.58;;;22.40;40.50;;;;;;8320210;28;20037;-41
2022/06/02 22:35:19;;;;;;;2.60;2.40;;;22.40;40.60;;;;;;8328723;28;20462;-41
2022/06/02 22:39:40;;;;;;;2.67;2.42;;;22.40;40.60;;;;;;8327944;28;20132;-41
2022/06/02 22:43:52;;;;;;;3.70;2.78;;;22.40;40.50;;;;;;8328070;28;20041;-41
2022/06/02 22:48:15;;;;;;;2.53;2.33;;;22.40;40.60;;;;;;8327913;28;20045;-41
2022/06/02 22:52:35;;;;;;;2.45;2.05;;;22.40;40.60;;;;;;8328034;28;20030;-41
2022/06/02 22:56:55;;;;;;;2.33;2.13;;;22.40;40.60;;;;;;8328211;28;20029;-42
2022/06/02 23:01:14;;;;;;;3.97;2.40;;;22.40;40.60;;;;;;8327442;28;20087;-41
2022/06/02 23:05:29;;;;;;;2.75;2.30;;;22.40;40.60;;;;;;8327698;28;20045;-41
2022/06/02 23:09:54;;;;;;;3.15;2.40;;;22.40;40.70;;;;;;8326751;28;20034;-41